^^
Paulen-Weather Station Historical Data
Daily Summary for May 06, 2022 Units:  English    Metric   Both
Daily Weekly Monthly Yearly Custom
  High: Low: Average:
Temperature: 50 °F 48.2 °F 49.3 °F
Dew Point: 46.4 °F 39.2 °F 42.8 °F
Humidity: 90% 68% 79%
Wind Speed: 7.5mph 0.6mph 4.1mph
Wind Gust: 6.8mph - -
Wind- - West
Pressure: 30.1 in 30.1 in -
Precipitation: 0 in    
Historical Graphs
 
 
Tabular Data for May 06, 2022
Time Temperature Dew Point Pressure Wind Wind Speed Wind Gust Humidity Rainfall Rate (Hourly) solar
00:04 50 °F 39.2 °F 30.1 in NNW 4.3 mph 3.1 mph 68% 0 in 0 W/m2
00:09 50 °F 39.2 °F 30.1 in NNW 3.7 mph 3.1 mph 69% 0 in 0 W/m2
00:14 50 °F 39.2 °F 30.1 in NNW 5.6 mph 3.7 mph 69% 0 in 0 W/m2
00:19 50 °F 39.2 °F 30.1 in N 5 mph 4.3 mph 69% 0 in 0 W/m2
00:24 50 °F 39.2 °F 30.1 in N 5 mph 2.5 mph 69% 0 in 0 W/m2
00:29 50 °F 39.2 °F 30.1 in NNW 4.3 mph 3.1 mph 69% 0 in 0 W/m2
00:34 50 °F 41 °F 30.1 in NNW 5 mph 3.1 mph 69% 0 in 0 W/m2
00:39 50 °F 41 °F 30.1 in N 5 mph 3.1 mph 70% 0 in 0 W/m2
00:44 50 °F 41 °F 30.1 in NNW 5 mph 3.1 mph 70% 0 in 0 W/m2
00:49 50 °F 41 °F 30.1 in NNW 3.7 mph 3.1 mph 70% 0 in 0 W/m2
00:54 50 °F 41 °F 30.1 in NNW 3.1 mph 1.9 mph 70% 0 in 0 W/m2
00:59 50 °F 41 °F 30.1 in NNW 3.7 mph 1.9 mph 70% 0 in 0 W/m2
01:04 50 °F 41 °F 30.1 in NNW 3.1 mph 1.9 mph 71% 0 in 0 W/m2
01:09 50 °F 41 °F 30.1 in N 5 mph 3.1 mph 71% 0 in 0 W/m2
01:14 50 °F 41 °F 30.1 in N 6.2 mph 3.1 mph 72% 0 in 0 W/m2
01:19 50 °F 41 °F 30.1 in NNW 6.2 mph 4.3 mph 72% 0 in 0 W/m2
01:24 50 °F 41 °F 30.1 in NNW 3.7 mph 2.5 mph 73% 0 in 0 W/m2
01:29 50 °F 41 °F 30.1 in N 4.3 mph 3.7 mph 73% 0 in 0 W/m2
01:34 50 °F 41 °F 30.1 in NNW 3.7 mph 2.5 mph 74% 0 in 0 W/m2
01:39 50 °F 41 °F 30.1 in N 4.3 mph 3.7 mph 74% 0 in 0 W/m2
01:44 48.2 °F 41 °F 30.1 in N 6.2 mph 3.7 mph 74% 0 in 0 W/m2
01:49 48.2 °F 41 °F 30.1 in N 7.5 mph 5.6 mph 74% 0 in 0 W/m2
01:54 48.2 °F 41 °F 30.1 in NNW 3.7 mph 2.5 mph 75% 0 in 0 W/m2
01:59 48.2 °F 41 °F 30.1 in NNW 3.7 mph 2.5 mph 75% 0 in 0 W/m2
02:04 48.2 °F 41 °F 30.1 in NNW 3.7 mph 3.1 mph 75% 0 in 0 W/m2
02:09 48.2 °F 41 °F 30.1 in N 5.6 mph 3.7 mph 76% 0 in 0 W/m2
02:14 48.2 °F 41 °F 30.1 in NNW 3.7 mph 2.5 mph 76% 0 in 0 W/m2
02:19 48.2 °F 41 °F 30.1 in N 2.5 mph 2.5 mph 76% 0 in 0 W/m2
02:24 48.2 °F 41 °F 30.1 in NNW 5.6 mph 4.3 mph 77% 0 in 0 W/m2
02:29 48.2 °F 41 °F 30.1 in N 5.6 mph 5 mph 77% 0 in 0 W/m2
02:34 48.2 °F 41 °F 30.1 in NNW 5.6 mph 3.7 mph 77% 0 in 0 W/m2
02:39 48.2 °F 41 °F 30.1 in N 2.5 mph 1.2 mph 77% 0 in 0 W/m2
02:44 48.2 °F 41 °F 30.1 in N 4.3 mph 3.7 mph 77% 0 in 0 W/m2
02:49 48.2 °F 41 °F 30.1 in N 3.1 mph 2.5 mph 77% 0 in 0 W/m2
02:54 48.2 °F 41 °F 30.1 in N 3.1 mph 1.9 mph 77% 0 in 0 W/m2
02:59 48.2 °F 42.8 °F 30.1 in NNW 1.9 mph 1.2 mph 78% 0 in 0 W/m2
03:04 48.2 °F 41 °F 30.1 in NNW 1.9 mph 0.6 mph 78% 0 in 0 W/m2
03:09 48.2 °F 41 °F 30.1 in NNW 2.5 mph 1.9 mph 78% 0 in 0 W/m2
03:14 48.2 °F 42.8 °F 30.1 in NNW 2.5 mph 1.9 mph 78% 0 in 0 W/m2
03:19 48.2 °F 42.8 °F 30.1 in NNW 3.1 mph 2.5 mph 78% 0 in 0 W/m2
03:24 48.2 °F 42.8 °F 30.1 in NNW 3.7 mph 3.7 mph 78% 0 in 0 W/m2
03:29 48.2 °F 42.8 °F 30.1 in NNW 5.6 mph 3.7 mph 78% 0 in 0 W/m2
03:34 48.2 °F 42.8 °F 30.1 in N 5.6 mph 3.7 mph 79% 0 in 0 W/m2
03:39 48.2 °F 42.8 °F 30.1 in N 5.6 mph 3.7 mph 79% 0 in 0 W/m2
03:44 48.2 °F 42.8 °F 30.1 in N 5 mph 4.3 mph 79% 0 in 0 W/m2
03:49 48.2 °F 42.8 °F 30.1 in N 4.3 mph 3.1 mph 79% 0 in 0 W/m2
03:54 48.2 °F 42.8 °F 30.1 in N 5.6 mph 3.1 mph 79% 0 in 0 W/m2
03:59 48.2 °F 42.8 °F 30.1 in NNE 3.7 mph 2.5 mph 79% 0 in 0 W/m2
04:04 50 °F 42.8 °F 30.1 in N 3.7 mph 2.5 mph 79% 0 in 0 W/m2
04:09 50 °F 42.8 °F 30.1 in NNE 3.1 mph 1.9 mph 79% 0 in 0 W/m2
04:14 50 °F 42.8 °F 30.1 in N 4.3 mph 1.2 mph 79% 0 in 0 W/m2
04:19 50 °F 42.8 °F 30.1 in NNW 3.7 mph 2.5 mph 79% 0 in 0 W/m2
04:24 50 °F 42.8 °F 30.1 in NNW 2.5 mph 1.2 mph 79% 0 in 0 W/m2
04:29 50 °F 42.8 °F 30.1 in NNW 3.7 mph 1.9 mph 79% 0 in 0 W/m2
04:34 50 °F 44.6 °F 30.1 in NNW 3.1 mph 2.5 mph 80% 0 in 0 W/m2
04:39 50 °F 44.6 °F 30.1 in NNW 3.1 mph 1.2 mph 80% 0 in 0 W/m2
04:44 50 °F 42.8 °F 30.1 in NNW 1.9 mph 0.6 mph 80% 0 in 0 W/m2
04:49 50 °F 42.8 °F 30.1 in NNW 0.6 mph   80% 0 in 0 W/m2
04:54 50 °F 42.8 °F 30.1 in NNW 0.6 mph 0.6 mph 80% 0 in 0 W/m2
04:59 50 °F 42.8 °F 30.1 in NNW 1.9 mph 1.2 mph 80% 0 in 0 W/m2
05:04 50 °F 42.8 °F 30.1 in NNW 1.2 mph 1.2 mph 80% 0 in 0 W/m2
05:09 50 °F 44.6 °F 30.1 in NNW 3.1 mph 1.9 mph 81% 0 in 0 W/m2
05:14 50 °F 44.6 °F 30.1 in NE 3.7 mph 2.5 mph 81% 0 in 0 W/m2
05:19 50 °F 44.6 °F 30.1 in NNW 1.9 mph 0.6 mph 81% 0 in 0 W/m2
05:24 50 °F 44.6 °F 30.1 in NW 1.2 mph 0.6 mph 81% 0 in 5 W/m2
05:29 50 °F 44.6 °F 30.1 in N 3.1 mph 1.9 mph 81% 0 in 9 W/m2
05:34 50 °F 44.6 °F 30.1 in NNW 3.7 mph 3.7 mph 82% 0 in 12 W/m2
05:39 50 °F 44.6 °F 30.1 in NNW 4.3 mph 3.1 mph 82% 0 in 16 W/m2
05:44 50 °F 44.6 °F 30.1 in NNW 2.5 mph 3.1 mph 82% 0 in 16 W/m2
05:49 50 °F 44.6 °F 30.1 in NNW 3.7 mph 1.9 mph 83% 0 in 21 W/m2
05:54 50 °F 44.6 °F 30.1 in NNE 4.3 mph 3.1 mph 83% 0 in 32 W/m2
05:59 50 °F 44.6 °F 30.1 in NW 3.7 mph 2.5 mph 83% 0 in 35 W/m2
06:04 48.2 °F 44.6 °F 30.1 in NNE 3.7 mph 3.7 mph 84% 0 in 23 W/m2
06:09 48.2 °F 44.6 °F 30.1 in NNE 5 mph 4.3 mph 85% 0 in 26 W/m2
06:14 48.2 °F 44.6 °F 30.1 in NE 5.6 mph 4.3 mph 85% 0 in 28 W/m2
06:19 48.2 °F 44.6 °F 30.1 in NE 6.8 mph 4.3 mph 86% 0 in 32 W/m2
06:24 48.2 °F 44.6 °F 30.1 in NNW 6.2 mph 5 mph 87% 0 in 39 W/m2
06:29 48.2 °F 44.6 °F 30.1 in NNE 6.8 mph 6.8 mph 87% 0 in 44 W/m2
06:34 48.2 °F 44.6 °F 30.1 in NNE 5.6 mph 4.3 mph 88% 0 in 47 W/m2
06:39 48.2 °F 44.6 °F 30.1 in NNW 4.3 mph 3.7 mph 88% 0 in 58 W/m2
06:44 48.2 °F 46.4 °F 30.1 in NNW 5 mph 3.1 mph 89% 0 in 67 W/m2
06:49 48.2 °F 46.4 °F 30.1 in NNW 5.6 mph 4.3 mph 89% 0 in 74 W/m2
06:54 48.2 °F 46.4 °F 30.1 in NNW 5 mph 3.1 mph 89% 0 in 67 W/m2
06:59 48.2 °F 46.4 °F 30.1 in N 5.6 mph 4.3 mph 89% 0 in 63 W/m2
07:04 50 °F 46.4 °F 30.1 in N 5 mph 3.1 mph 90% 0 in 63 W/m2
07:09 50 °F 46.4 °F 30.1 in NNW 4.3 mph 3.1 mph 90% 0 in 70 W/m2
07:14 50 °F 46.4 °F 30.1 in NNW 3.1 mph 1.9 mph 90% 0 in 93 W/m2
07:19 50 °F 46.4 °F 30.1 in NNW 3.7 mph 4.3 mph 90% 0 in 93 W/m2
07:24 50 °F 46.4 °F 30.1 in NNW 5 mph 4.3 mph 90% 0 in 98 W/m2
Compliments of Weather Underground - 2 mb